Terminal Aerodrome Forecast
Issued by NWS

Home | Current Version | Previous Version | Graphics & Text | Print | Product List | Glossary On
Versions: 1 2 3 4 5 6 7 8 9 10 11 12 13 14 15 16 17 18 19 20
000
FTUS43 KBIS 231022 AAA
TAFDIK
TAF AMD
KDIK 231022Z 2310/2406 16005KT P6SM VCSH BKN080
     FM231200 VRB03KT 6SM -RA BR OVC070
     FM231800 36008KT P6SM VCSH OVC060
     FM240000 33006KT P6SM BKN060
     FM240400 31005KT P6SM SCT100=

USA.gov is the U.S. government's official web portal to all federal, state and local government web resources and services.